createdAt,value
2023-03-03T00:01:34.322Z,100.00
2023-03-03T00:04:01.630Z,100.00
2023-03-03T00:06:30.075Z,100.00
2023-03-03T00:08:57.355Z,100.00
2023-03-03T00:11:24.502Z,100.00
2023-03-03T00:13:55.424Z,99.85
2023-03-03T00:16:25.455Z,99.63
2023-03-03T00:18:53.568Z,99.64
2023-03-03T00:21:39.864Z,99.54
2023-03-03T00:24:24.213Z,99.35
2023-03-03T00:26:55.925Z,99.32
2023-03-03T00:29:41.848Z,99.30
2023-03-03T00:32:25.496Z,99.32
2023-03-03T00:34:57.152Z,99.28
2023-03-03T00:37:29.324Z,99.51
2023-03-03T00:40:12.247Z,99.47
2023-03-03T00:42:39.351Z,99.42
2023-03-03T00:45:28.975Z,99.11
2023-03-03T00:47:56.976Z,98.98
2023-03-03T00:50:30.538Z,99.11
2023-03-03T00:53:06.156Z,98.80
2023-03-03T00:55:34.652Z,98.93
2023-03-03T00:58:01.786Z,98.95
2023-03-03T01:00:34.520Z,99.22
2023-03-03T01:03:05.629Z,99.68
2023-03-03T01:05:32.967Z,100.00
2023-03-03T01:08:00.246Z,100.00
2023-03-03T01:10:29.650Z,100.00
2023-03-03T01:12:57.847Z,100.00
2023-03-03T01:15:24.916Z,100.00
2023-03-03T01:17:52.005Z,100.00
2023-03-03T01:20:19.898Z,100.00
2023-03-03T01:22:46.842Z,100.00
2023-03-03T01:25:14.098Z,100.00
2023-03-03T01:27:41.176Z,100.00
2023-03-03T01:30:09.640Z,100.00
2023-03-03T01:32:37.075Z,100.00
2023-03-03T01:35:04.208Z,100.00
2023-03-03T01:37:48.711Z,100.00
2023-03-03T01:40:22.552Z,100.00
2023-03-03T01:42:49.558Z,100.00
2023-03-03T01:45:39.325Z,100.00
2023-03-03T01:48:10.579Z,100.00
2023-03-03T01:50:41.809Z,100.00
2023-03-03T01:53:14.351Z,100.00
2023-03-03T01:55:42.612Z,100.00
2023-03-03T01:58:14.953Z,100.00
2023-03-03T02:00:46.294Z,99.64
2023-03-03T02:03:13.232Z,99.30
2023-03-03T02:05:40.836Z,99.17
2023-03-03T02:08:09.419Z,99.31
2023-03-03T02:10:38.982Z,99.21
2023-03-03T02:13:05.876Z,99.25
2023-03-03T02:15:36.203Z,99.08
2023-03-03T02:18:06.373Z,99.17
2023-03-03T02:20:45.311Z,99.12
2023-03-03T02:23:36.296Z,98.82
2023-03-03T02:26:06.688Z,98.45
2023-03-03T02:28:35.895Z,98.72
2023-03-03T02:31:13.240Z,99.39
2023-03-03T02:33:46.898Z,99.70
2023-03-03T02:36:23.115Z,100.00
2023-03-03T02:39:13.179Z,100.00
2023-03-03T02:42:01.060Z,100.00
2023-03-03T02:44:35.466Z,100.00
2023-03-03T02:47:02.539Z,100.00
2023-03-03T02:49:32.862Z,100.00
2023-03-03T02:52:00.875Z,100.00
2023-03-03T02:54:30.368Z,100.00
2023-03-03T02:56:59.340Z,100.00
2023-03-03T02:59:27.307Z,100.00
2023-03-03T03:01:55.688Z,100.00
2023-03-03T03:04:25.054Z,100.00
2023-03-03T03:06:53.343Z,100.00
2023-03-03T03:09:22.964Z,100.00
2023-03-03T03:11:51.872Z,100.00
2023-03-03T03:14:21.977Z,100.00
2023-03-03T03:16:49.158Z,100.00
2023-03-03T03:19:16.266Z,100.00
2023-03-03T03:21:44.561Z,100.00
2023-03-03T03:24:11.885Z,100.00
2023-03-03T03:26:43.458Z,100.00
2023-03-03T03:29:11.244Z,100.00
2023-03-03T03:31:39.583Z,100.00
2023-03-03T03:34:06.605Z,100.00
2023-03-03T03:36:34.049Z,100.00
2023-03-03T03:39:03.036Z,100.00
2023-03-03T03:41:31.007Z,100.00
2023-03-03T03:43:58.178Z,100.00
2023-03-03T03:46:25.253Z,100.00
2023-03-03T03:48:52.514Z,100.00
2023-03-03T03:51:21.727Z,100.00
2023-03-03T03:53:48.943Z,100.00
2023-03-03T03:56:16.138Z,100.00
2023-03-03T03:58:45.030Z,100.00
2023-03-03T04:01:14.572Z,100.00
2023-03-03T04:03:46.478Z,100.00
2023-03-03T04:06:17.491Z,100.00
2023-03-03T04:08:44.872Z,100.00
2023-03-03T04:11:12.837Z,100.00
2023-03-03T04:13:42.713Z,100.00
2023-03-03T04:16:16.386Z,100.00
2023-03-03T04:18:51.205Z,100.00
2023-03-03T04:21:22.619Z,100.00
2023-03-03T04:23:58.881Z,100.00
2023-03-03T04:26:38.369Z,100.00
2023-03-03T04:29:08.780Z,100.00
2023-03-03T04:31:43.818Z,100.00
2023-03-03T04:34:25.880Z,100.00
2023-03-03T04:37:04.555Z,100.00
2023-03-03T04:39:36.143Z,100.00
2023-03-03T04:42:05.370Z,100.00
2023-03-03T04:44:47.846Z,100.00
2023-03-03T04:47:18.773Z,100.00
2023-03-03T04:49:47.717Z,100.00
2023-03-03T04:52:19.169Z,100.00
2023-03-03T04:54:50.245Z,100.00
2023-03-03T04:57:45.290Z,100.00
2023-03-03T05:00:17.574Z,100.00
2023-03-03T05:02:58.125Z,100.00
2023-03-03T05:05:36.629Z,100.00
2023-03-03T05:08:11.276Z,100.00
2023-03-03T05:10:56.235Z,100.00
2023-03-03T05:13:30.955Z,100.00
2023-03-03T05:16:04.454Z,99.93
2023-03-03T05:18:35.694Z,99.55
2023-03-03T05:21:02.723Z,99.42
2023-03-03T05:23:29.768Z,99.31
2023-03-03T05:25:56.985Z,99.05
2023-03-03T05:28:24.171Z,98.72
2023-03-03T05:30:56.285Z,98.66
2023-03-03T05:33:23.275Z,98.54
2023-03-03T05:35:54.548Z,98.25
2023-03-03T05:38:21.708Z,97.94
2023-03-03T05:40:48.792Z,97.48
2023-03-03T05:43:15.767Z,97.31
2023-03-03T05:45:42.844Z,97.11
2023-03-03T05:48:10.502Z,96.83
2023-03-03T05:50:38.255Z,96.51
2023-03-03T05:53:05.240Z,96.17
2023-03-03T05:55:32.704Z,95.51
2023-03-03T05:57:59.643Z,95.80
2023-03-03T06:00:26.569Z,95.95
2023-03-03T06:02:53.832Z,95.87
2023-03-03T06:05:20.911Z,95.40
2023-03-03T06:07:47.900Z,95.09
2023-03-03T06:10:15.112Z,94.71
2023-03-03T06:12:46.367Z,93.60
2023-03-03T06:15:13.611Z,92.81
2023-03-03T06:17:40.584Z,92.47
2023-03-03T06:20:08.080Z,91.72
2023-03-03T06:22:34.988Z,91.50
2023-03-03T06:25:02.038Z,91.32
2023-03-03T06:27:30.525Z,90.83
2023-03-03T06:29:57.558Z,90.85
2023-03-03T06:32:24.578Z,90.57
2023-03-03T06:34:51.784Z,90.06
2023-03-03T06:37:18.857Z,90.07
2023-03-03T06:39:45.928Z,90.16
2023-03-03T06:42:12.834Z,89.59
2023-03-03T06:44:40.019Z,89.61
2023-03-03T06:47:07.167Z,88.78
2023-03-03T06:49:34.192Z,88.47
2023-03-03T06:52:05.943Z,88.59
2023-03-03T06:54:33.035Z,88.48
2023-03-03T06:57:01.651Z,88.23
2023-03-03T06:59:28.973Z,88.03
2023-03-03T07:01:56.592Z,87.38
2023-03-03T07:04:34.110Z,86.87
2023-03-03T07:07:11.861Z,86.52
2023-03-03T07:09:38.927Z,86.40
2023-03-03T07:12:11.076Z,85.56
2023-03-03T07:14:43.065Z,85.04
2023-03-03T07:17:16.842Z,84.59
2023-03-03T07:19:44.511Z,84.35
2023-03-03T07:22:14.411Z,84.17
2023-03-03T07:24:42.550Z,84.05
2023-03-03T07:27:32.514Z,83.62
2023-03-03T07:30:24.680Z,83.23
2023-03-03T07:32:57.803Z,83.39
2023-03-03T07:35:41.377Z,83.53
2023-03-03T07:38:14.275Z,83.51
2023-03-03T07:40:48.537Z,83.81
2023-03-03T07:43:50.873Z,83.68
2023-03-03T07:46:51.999Z,83.86
2023-03-03T07:49:36.917Z,83.63
2023-03-03T07:52:25.460Z,83.53
2023-03-03T07:54:53.729Z,83.82
2023-03-03T07:57:21.950Z,84.01
2023-03-03T07:59:51.640Z,83.82
2023-03-03T08:02:27.494Z,83.29
2023-03-03T08:04:55.391Z,83.63
2023-03-03T08:07:23.746Z,83.73
2023-03-03T08:10:01.226Z,83.76
2023-03-03T08:12:43.427Z,84.08
2023-03-03T08:15:30.331Z,83.78
2023-03-03T08:18:02.341Z,83.44
2023-03-03T08:20:29.431Z,82.13
2023-03-03T08:22:56.440Z,81.17
2023-03-03T08:25:23.773Z,80.22
2023-03-03T08:27:50.793Z,78.51
2023-03-03T08:30:17.918Z,78.85
2023-03-03T08:32:45.001Z,77.45
2023-03-03T08:35:11.941Z,77.09
2023-03-03T08:37:38.860Z,76.82
2023-03-03T08:40:06.460Z,76.78
2023-03-03T08:42:33.458Z,76.70
2023-03-03T08:45:00.485Z,76.87
2023-03-03T08:47:27.430Z,77.46
2023-03-03T08:49:54.950Z,78.08
2023-03-03T08:52:21.973Z,77.84
2023-03-03T08:54:48.916Z,77.96
2023-03-03T08:57:19.168Z,77.80
2023-03-03T08:59:47.972Z,77.90
2023-03-03T09:02:15.297Z,77.63
2023-03-03T09:04:42.245Z,77.00
2023-03-03T09:07:09.485Z,76.81
2023-03-03T09:09:37.548Z,76.49
2023-03-03T09:12:17.405Z,75.81
2023-03-03T09:14:44.719Z,75.21
2023-03-03T09:17:35.504Z,74.88
2023-03-03T09:20:36.379Z,73.25
2023-03-03T09:23:26.070Z,73.32
2023-03-03T09:25:53.422Z,72.97
2023-03-03T09:28:31.877Z,73.19
2023-03-03T09:31:01.405Z,73.60
2023-03-03T09:33:45.805Z,73.45
2023-03-03T09:36:37.704Z,73.66
2023-03-03T09:39:19.942Z,73.13
2023-03-03T09:42:11.085Z,72.66
2023-03-03T09:44:46.054Z,72.28
2023-03-03T09:47:22.341Z,72.78
2023-03-03T09:50:20.412Z,72.39
2023-03-03T09:53:08.790Z,72.75
2023-03-03T09:55:56.267Z,73.18
2023-03-03T09:58:23.348Z,73.04
2023-03-03T10:01:27.229Z,72.90
2023-03-03T10:04:00.362Z,72.39
2023-03-03T10:06:34.229Z,71.68
2023-03-03T10:09:10.224Z,72.91
2023-03-03T10:12:07.837Z,73.61
2023-03-03T10:14:58.008Z,74.64
2023-03-03T10:17:39.923Z,74.52
2023-03-03T10:20:40.437Z,74.28
2023-03-03T10:23:40.850Z,73.30
2023-03-03T10:26:34.707Z,73.17
2023-03-03T10:29:09.103Z,72.88
2023-03-03T10:31:49.760Z,73.31
2023-03-03T10:34:25.504Z,72.81
2023-03-03T10:36:56.472Z,72.84
2023-03-03T10:39:29.379Z,73.45
2023-03-03T10:42:01.948Z,72.81
2023-03-03T10:44:37.918Z,73.86
2023-03-03T10:47:42.201Z,74.70
2023-03-03T10:50:16.146Z,74.83
2023-03-03T10:52:53.123Z,74.99
2023-03-03T10:55:28.688Z,75.03
2023-03-03T10:58:04.703Z,74.36
2023-03-03T11:00:54.936Z,73.68
2023-03-03T11:03:21.857Z,73.33
2023-03-03T11:06:05.496Z,73.37
2023-03-03T11:08:40.190Z,72.09
2023-03-03T11:11:09.929Z,71.33
2023-03-03T11:13:52.251Z,72.05
2023-03-03T11:16:34.205Z,72.17
2023-03-03T11:19:34.521Z,72.18
2023-03-03T11:22:04.462Z,72.59
2023-03-03T11:24:38.442Z,72.52
2023-03-03T11:27:30.116Z,72.28
2023-03-03T11:30:19.098Z,72.47
2023-03-03T11:32:50.962Z,73.19
2023-03-03T11:35:58.066Z,73.24
2023-03-03T11:38:40.233Z,73.25
2023-03-03T11:41:31.998Z,73.53
2023-03-03T11:44:23.273Z,73.79
2023-03-03T11:46:55.322Z,73.85
2023-03-03T11:49:29.343Z,73.32
2023-03-03T11:52:05.656Z,73.77
2023-03-03T11:54:35.471Z,73.78
2023-03-03T11:57:37.648Z,73.27
2023-03-03T12:00:55.826Z,73.44
2023-03-03T12:03:28.056Z,73.29
2023-03-03T12:06:22.654Z,73.46
2023-03-03T12:09:04.239Z,72.13
2023-03-03T12:12:15.495Z,72.38
2023-03-03T12:15:03.973Z,71.23
2023-03-03T12:17:56.363Z,69.11
2023-03-03T12:20:34.564Z,67.54
2023-03-03T12:23:18.840Z,67.22
2023-03-03T12:26:06.602Z,67.59
2023-03-03T12:29:14.767Z,67.04
2023-03-03T12:32:05.906Z,66.33
2023-03-03T12:34:44.833Z,66.54
2023-03-03T12:37:32.118Z,66.32
2023-03-03T12:40:04.165Z,66.73
2023-03-03T12:42:38.765Z,66.35
2023-03-03T12:45:24.073Z,66.67
2023-03-03T12:47:51.676Z,66.42
2023-03-03T12:50:40.903Z,67.19
2023-03-03T12:53:10.732Z,67.36
2023-03-03T12:55:37.936Z,66.95
2023-03-03T12:58:30.395Z,66.79
2023-03-03T13:01:06.798Z,66.96
2023-03-03T13:03:37.078Z,66.35
2023-03-03T13:06:39.290Z,66.03
2023-03-03T13:09:10.023Z,65.93
2023-03-03T13:11:42.908Z,65.92
2023-03-03T13:14:18.305Z,66.36
2023-03-03T13:17:08.845Z,65.43
2023-03-03T13:19:44.734Z,65.33
2023-03-03T13:22:19.295Z,64.99
2023-03-03T13:24:46.427Z,64.97
2023-03-03T13:27:20.709Z,64.33
2023-03-03T13:30:01.261Z,64.28
2023-03-03T13:32:35.639Z,64.54
2023-03-03T13:35:20.058Z,63.97
2023-03-03T13:37:54.201Z,64.33
2023-03-03T13:40:50.223Z,64.69
2023-03-03T13:43:24.274Z,64.84
2023-03-03T13:46:05.874Z,64.54
2023-03-03T13:48:54.542Z,64.66
2023-03-03T13:51:40.397Z,64.40
2023-03-03T13:54:28.248Z,64.71
2023-03-03T13:57:04.791Z,64.80
2023-03-03T13:59:47.205Z,64.77
2023-03-03T14:02:24.139Z,64.96
2023-03-03T14:05:03.461Z,64.74
2023-03-03T14:08:01.618Z,64.90
2023-03-03T14:10:38.937Z,64.85
2023-03-03T14:13:10.045Z,65.47
2023-03-03T14:15:51.571Z,65.46
2023-03-03T14:18:44.915Z,65.53
2023-03-03T14:21:22.726Z,65.83
2023-03-03T14:24:11.231Z,65.85
2023-03-03T14:26:55.246Z,65.79
2023-03-03T14:29:28.473Z,66.22
2023-03-03T14:32:16.450Z,66.19
2023-03-03T14:34:44.161Z,66.25
2023-03-03T14:37:49.200Z,66.58
2023-03-03T14:40:22.043Z,66.43
2023-03-03T14:42:51.927Z,65.74
2023-03-03T14:45:30.146Z,66.25
2023-03-03T14:47:59.399Z,66.21
2023-03-03T14:50:37.837Z,66.14
2023-03-03T14:53:16.044Z,66.38
2023-03-03T14:55:45.200Z,66.48
2023-03-03T14:58:35.072Z,66.42
2023-03-03T15:01:23.284Z,66.84
2023-03-03T15:04:05.337Z,67.25
2023-03-03T15:06:43.398Z,67.02
2023-03-03T15:09:24.783Z,66.68
2023-03-03T15:11:53.560Z,66.89
2023-03-03T15:14:36.295Z,67.03
2023-03-03T15:17:20.885Z,66.92
2023-03-03T15:20:10.629Z,67.05
2023-03-03T15:22:45.424Z,67.05
2023-03-03T15:25:41.996Z,66.67
2023-03-03T15:28:20.756Z,67.22
2023-03-03T15:31:04.687Z,66.88
2023-03-03T15:33:40.887Z,67.15
2023-03-03T15:36:34.291Z,67.09
2023-03-03T15:39:20.290Z,67.17
2023-03-03T15:42:06.260Z,67.27
2023-03-03T15:44:48.398Z,67.62
2023-03-03T15:47:28.577Z,67.93
2023-03-03T15:50:17.592Z,67.74
2023-03-03T15:52:47.716Z,68.22
2023-03-03T15:55:27.606Z,68.14
2023-03-03T15:58:13.186Z,68.33
2023-03-03T16:01:22.533Z,68.51
2023-03-03T16:04:02.241Z,68.31
2023-03-03T16:07:00.550Z,68.53
2023-03-03T16:09:36.541Z,68.45
2023-03-03T16:12:25.764Z,68.69
2023-03-03T16:14:52.801Z,69.05
2023-03-03T16:17:29.576Z,69.39
2023-03-03T16:20:10.654Z,69.62
2023-03-03T16:23:05.524Z,69.98
2023-03-03T16:25:51.516Z,70.10
2023-03-03T16:28:21.783Z,70.32
2023-03-03T16:31:13.127Z,70.52
2023-03-03T16:34:15.173Z,70.84
2023-03-03T16:37:01.851Z,71.03
2023-03-03T16:39:40.922Z,71.25
2023-03-03T16:42:21.653Z,71.30
2023-03-03T16:45:26.102Z,71.41
2023-03-03T16:47:59.092Z,71.26
2023-03-03T16:50:51.113Z,70.86
2023-03-03T16:53:55.848Z,70.75
2023-03-03T16:56:25.522Z,70.65
2023-03-03T16:59:11.744Z,70.88
2023-03-03T17:01:49.619Z,70.27
2023-03-03T17:04:46.399Z,70.98
2023-03-03T17:07:38.865Z,70.67
2023-03-03T17:10:27.113Z,70.41
2023-03-03T17:13:20.576Z,70.50
2023-03-03T17:16:08.661Z,70.66
2023-03-03T17:19:13.549Z,70.55
2023-03-03T17:21:57.379Z,70.01
2023-03-03T17:24:33.249Z,69.83
2023-03-03T17:27:24.921Z,69.43
2023-03-03T17:30:07.292Z,69.19
2023-03-03T17:32:37.148Z,69.63
2023-03-03T17:35:42.503Z,69.78
2023-03-03T17:38:22.732Z,69.84
2023-03-03T17:40:52.616Z,70.20
2023-03-03T17:43:28.356Z,70.78
2023-03-03T17:45:56.916Z,70.49
2023-03-03T17:48:49.370Z,70.85
2023-03-03T17:51:30.933Z,71.10
2023-03-03T17:53:57.848Z,70.81
2023-03-03T17:56:43.849Z,71.12
2023-03-03T17:59:22.944Z,71.16
2023-03-03T18:02:16.622Z,71.24
2023-03-03T18:04:52.999Z,71.68
2023-03-03T18:07:34.650Z,72.27
2023-03-03T18:10:31.695Z,72.29
2023-03-03T18:13:07.995Z,72.37
2023-03-03T18:16:12.751Z,72.60
2023-03-03T18:18:49.121Z,72.99
2023-03-03T18:21:19.028Z,73.25
2023-03-03T18:23:47.378Z,73.91
2023-03-03T18:26:35.254Z,74.00
2023-03-03T18:29:20.141Z,74.11
2023-03-03T18:31:53.768Z,74.55
2023-03-03T18:34:20.791Z,74.60
2023-03-03T18:37:20.343Z,74.58
2023-03-03T18:40:18.669Z,74.89
2023-03-03T18:42:49.145Z,75.21
2023-03-03T18:45:23.220Z,75.72
2023-03-03T18:48:12.093Z,76.15
2023-03-03T18:50:44.550Z,76.96
2023-03-03T18:53:33.861Z,77.00
2023-03-03T18:56:02.782Z,77.84
2023-03-03T18:58:41.949Z,77.72
2023-03-03T19:01:10.836Z,77.99
2023-03-03T19:03:57.129Z,78.71
2023-03-03T19:06:35.996Z,78.92
2023-03-03T19:09:05.944Z,79.22
2023-03-03T19:11:59.310Z,79.55
2023-03-03T19:14:27.919Z,79.99
2023-03-03T19:16:56.386Z,80.38
2023-03-03T19:19:35.098Z,81.10
2023-03-03T19:22:22.702Z,81.63
2023-03-03T19:25:14.105Z,81.85
2023-03-03T19:28:22.015Z,82.51
2023-03-03T19:31:33.153Z,82.91
2023-03-03T19:34:40.211Z,83.42
2023-03-03T19:37:15.237Z,83.63
2023-03-03T19:40:01.079Z,84.07
2023-03-03T19:42:30.066Z,84.14
2023-03-03T19:45:02.005Z,84.69
2023-03-03T19:47:44.579Z,84.89
2023-03-03T19:50:37.438Z,85.36
2023-03-03T19:53:27.945Z,85.55
2023-03-03T19:56:17.835Z,85.70
2023-03-03T19:58:44.853Z,85.93
2023-03-03T20:01:21.720Z,86.49
2023-03-03T20:03:58.496Z,87.06
2023-03-03T20:06:36.065Z,87.48
2023-03-03T20:09:09.031Z,87.85
2023-03-03T20:11:48.932Z,88.30
2023-03-03T20:14:29.722Z,88.57
2023-03-03T20:17:05.440Z,89.00
2023-03-03T20:19:35.050Z,89.28
2023-03-03T20:22:11.810Z,89.47
2023-03-03T20:24:50.627Z,89.51
2023-03-03T20:27:24.899Z,89.65
2023-03-03T20:30:23.001Z,90.00
2023-03-03T20:33:04.953Z,90.08
2023-03-03T20:35:37.641Z,89.97
2023-03-03T20:38:33.229Z,90.28
2023-03-03T20:41:04.152Z,90.31
2023-03-03T20:43:51.464Z,90.45
2023-03-03T20:46:23.237Z,90.92
2023-03-03T20:49:16.148Z,91.32
2023-03-03T20:51:51.835Z,91.77
2023-03-03T20:54:33.966Z,91.98
2023-03-03T20:57:06.762Z,92.15
2023-03-03T20:59:41.617Z,92.37
2023-03-03T21:02:27.698Z,92.65
2023-03-03T21:05:15.165Z,92.73
2023-03-03T21:08:02.390Z,93.00
2023-03-03T21:10:31.742Z,93.01
2023-03-03T21:13:19.576Z,92.89
2023-03-03T21:15:57.006Z,92.89
2023-03-03T21:18:24.833Z,92.94
2023-03-03T21:20:51.878Z,92.91
2023-03-03T21:23:21.105Z,92.77
2023-03-03T21:25:55.540Z,92.86
2023-03-03T21:28:26.598Z,92.64
2023-03-03T21:31:03.282Z,92.79
2023-03-03T21:33:56.629Z,93.02
2023-03-03T21:36:43.818Z,92.59
2023-03-03T21:39:34.756Z,92.78
2023-03-03T21:42:07.362Z,92.68
2023-03-03T21:44:41.012Z,92.51
2023-03-03T21:47:10.178Z,92.57
2023-03-03T21:49:41.430Z,92.77
2023-03-03T21:52:09.175Z,92.72
2023-03-03T21:54:36.176Z,92.60
2023-03-03T21:57:03.219Z,92.64
2023-03-03T21:59:30.617Z,92.67
2023-03-03T22:01:57.602Z,92.77
2023-03-03T22:04:24.613Z,92.95
2023-03-03T22:06:52.977Z,93.14
2023-03-03T22:09:20.168Z,93.58
2023-03-03T22:11:47.435Z,93.56
2023-03-03T22:14:14.810Z,93.84
2023-03-03T22:16:41.986Z,94.53
2023-03-03T22:19:09.405Z,94.76
2023-03-03T22:21:37.542Z,95.02
2023-03-03T22:24:05.766Z,95.49
2023-03-03T22:26:33.175Z,95.85
2023-03-03T22:29:00.398Z,96.11
2023-03-03T22:31:27.695Z,96.64
2023-03-03T22:33:54.709Z,96.97
2023-03-03T22:36:21.890Z,97.06
2023-03-03T22:38:49.281Z,97.31
2023-03-03T22:41:16.472Z,96.92
2023-03-03T22:43:43.487Z,96.72
2023-03-03T22:46:11.022Z,96.82
2023-03-03T22:48:38.169Z,96.75
2023-03-03T22:51:07.841Z,96.55
2023-03-03T22:53:34.984Z,96.53
2023-03-03T22:56:02.040Z,96.09
2023-03-03T22:58:29.578Z,96.17
2023-03-03T23:00:56.806Z,96.13
2023-03-03T23:03:24.509Z,96.07
2023-03-03T23:05:52.117Z,96.14
2023-03-03T23:08:20.558Z,96.31
2023-03-03T23:10:48.333Z,96.43
2023-03-03T23:13:15.362Z,96.49
2023-03-03T23:15:42.814Z,96.51
2023-03-03T23:18:10.555Z,96.87
2023-03-03T23:20:38.230Z,97.21
2023-03-03T23:23:05.305Z,97.09
2023-03-03T23:25:32.359Z,97.16
2023-03-03T23:27:59.330Z,97.08
2023-03-03T23:30:26.689Z,96.94
2023-03-03T23:32:54.062Z,96.83
2023-03-03T23:35:21.183Z,97.08
2023-03-03T23:37:48.286Z,96.91
2023-03-03T23:40:17.219Z,97.06
2023-03-03T23:42:44.562Z,97.21
2023-03-03T23:45:12.786Z,97.27
2023-03-03T23:47:39.814Z,97.24
2023-03-03T23:50:07.636Z,97.23
2023-03-03T23:52:34.629Z,97.35
2023-03-03T23:55:01.833Z,97.41
2023-03-03T23:57:30.264Z,97.42
2023-03-03T23:59:57.262Z,97.54
